Time;durP1;ratioP1;P1;durP2;ratioP2;P2;SDS_P1;SDS_P2;PMS_P1;PMS_P2;Temp;Humidity;BMP_temperature;BMP_pressure;BME280_temperature;BME280_humidity;BME280_pressure;Samples;Min_cycle;Max_cycle;Signal;HPM_P1;HPM_P2
2023/01/02 00:01:49;;;;;;;7.85;2.13;;;;;;;;;;5036281;28;20037;-67
2023/01/02 00:04:35;;;;;;;8.77;3.08;;;;;;;;;;5042116;28;20479;-66
2023/01/02 00:07:20;;;;;;;7.05;2.90;;;;;;;;;;5028351;28;20480;-67
2023/01/02 00:10:05;;;;;;;4.53;2.40;;;;;;;;;;5042347;28;20029;-67
2023/01/02 00:12:50;;;;;;;5.65;2.60;;;;;;;;;;5028158;28;20037;-67
2023/01/02 00:15:36;;;;;;;7.30;2.83;;;;;;;;;;5028431;28;20528;-80
2023/01/02 00:18:21;;;;;;;5.45;3.13;;;;;;;;;;5009169;28;20091;-81
2023/01/02 00:21:06;;;;;;;7.93;3.13;;;;;;;;;;5026699;28;20136;-82
2023/01/02 00:23:51;;;;;;;5.80;2.88;;;;;;;;;;5028733;28;20037;-81
2023/01/02 00:26:36;;;;;;;10.23;3.45;;;;;;;;;;5040478;28;20041;-80
2023/01/02 00:29:22;;;;;;;4.50;2.85;;;;;;;;;;5015030;28;20037;-69
2023/01/02 00:32:07;;;;;;;9.25;2.70;;;;;;;;;;5019083;28;20040;-70
2023/01/02 00:34:52;;;;;;;8.05;3.70;;;;;;;;;;5013617;28;20040;-81
2023/01/02 00:37:37;;;;;;;11.55;4.30;;;;;;;;;;5028164;28;20037;-83
2023/01/02 00:40:22;;;;;;;7.38;4.40;;;;;;;;;;5028137;28;20052;-80
2023/01/02 00:43:08;;;;;;;9.32;3.80;;;;;;;;;;5014428;28;20540;-82
2023/01/02 00:45:53;;;;;;;10.35;4.32;;;;;;;;;;5014242;28;20040;-79
2023/01/02 00:48:39;;;;;;;6.75;4.00;;;;;;;;;;5011167;28;20351;-73
2023/01/02 00:51:24;;;;;;;9.80;3.63;;;;;;;;;;5041742;28;20098;-74
2023/01/02 00:54:09;;;;;;;7.85;2.70;;;;;;;;;;5007772;28;20083;-78
2023/01/02 00:56:55;;;;;;;6.97;2.63;;;;;;;;;;5011260;28;20045;-76
2023/01/02 00:59:40;;;;;;;5.53;2.58;;;;;;;;;;5032855;28;20041;-77
2023/01/02 01:02:25;;;;;;;6.88;2.97;;;;;;;;;;5040835;28;20036;-77
2023/01/02 01:05:10;;;;;;;4.03;2.30;;;;;;;;;;5040082;28;20039;-76
2023/01/02 01:07:56;;;;;;;8.63;2.90;;;;;;;;;;5019896;28;20037;-73
2023/01/02 01:10:41;;;;;;;6.63;2.45;;;;;;;;;;5027101;28;20045;-66
2023/01/02 01:13:26;;;;;;;5.68;1.98;;;;;;;;;;5041509;28;20045;-68
2023/01/02 01:16:13;;;;;;;7.00;2.20;;;;;;;;;;5027489;28;20041;-67
2023/01/02 01:18:59;;;;;;;4.20;2.20;;;;;;;;;;5027085;28;20064;-68
2023/01/02 01:21:44;;;;;;;6.93;2.08;;;;;;;;;;5009412;28;20076;-67
2023/01/02 01:24:30;;;;;;;3.55;1.65;;;;;;;;;;5041159;28;20025;-74
2023/01/02 01:27:15;;;;;;;10.38;2.60;;;;;;;;;;5041159;28;20626;-66
2023/01/02 01:30:00;;;;;;;5.93;2.20;;;;;;;;;;5039679;28;20058;-72
2023/01/02 01:32:46;;;;;;;6.82;2.80;;;;;;;;;;5040601;28;20042;-72
2023/01/02 01:35:34;;;;;;;5.85;2.15;;;;;;;;;;5040588;28;20108;-74
2023/01/02 01:38:19;;;;;;;5.40;2.20;;;;;;;;;;5026443;28;20244;-73
2023/01/02 01:41:05;;;;;;;3.67;1.60;;;;;;;;;;5027149;28;20037;-72
2023/01/02 01:43:58;;;;;;;3.92;1.67;;;;;;;;;;5041498;28;20029;-68
2023/01/02 01:46:45;;;;;;;12.38;2.40;;;;;;;;;;5012891;28;20421;-77
2023/01/02 01:49:30;;;;;;;3.42;2.15;;;;;;;;;;5040070;28;20037;-76
2023/01/02 01:52:17;;;;;;;6.55;2.42;;;;;;;;;;5039742;28;20079;-76
2023/01/02 01:55:07;;;;;;;6.45;2.17;;;;;;;;;;5039802;28;20574;-77
2023/01/02 01:58:04;;;;;;;4.90;1.95;;;;;;;;;;5040175;28;20053;-74
2023/01/02 02:00:50;;;;;;;6.65;3.90;;;;;;;;;;5014030;28;20132;-75
2023/01/02 02:03:36;;;;;;;6.07;2.13;;;;;;;;;;5027816;28;20033;-76
2023/01/02 02:06:21;;;;;;;5.35;2.22;;;;;;;;;;5007428;28;20093;-73
2023/01/02 02:09:11;;;;;;;5.65;2.50;;;;;;;;;;5027298;28;20037;-75
2023/01/02 02:11:56;;;;;;;8.07;3.13;;;;;;;;;;5040809;28;20037;-73
2023/01/02 02:14:42;;;;;;;7.00;2.20;;;;;;;;;;5041282;28;20041;-72
2023/01/02 02:17:46;;;;;;;6.75;2.67;;;;;;;;;;5011245;28;20041;-73
2023/01/02 02:20:36;;;;;;;4.72;2.65;;;;;;;;;;5030406;28;20069;-69
2023/01/02 02:23:40;;;;;;;8.10;2.35;;;;;;;;;;5025860;28;20056;-67
2023/01/02 02:26:37;;;;;;;5.18;2.10;;;;;;;;;;5030767;28;20043;-71
2023/01/02 02:29:38;;;;;;;6.63;3.40;;;;;;;;;;5030106;28;20084;-68
2023/01/02 02:32:38;;;;;;;5.90;2.10;;;;;;;;;;5030425;28;20084;-69
2023/01/02 02:35:42;;;;;;;8.43;2.40;;;;;;;;;;5028286;28;20029;-69
2023/01/02 02:38:31;;;;;;;8.60;3.25;;;;;;;;;;5026129;28;20560;-72
2023/01/02 02:41:24;;;;;;;5.85;2.13;;;;;;;;;;5030108;28;20037;-78
2023/01/02 02:44:19;;;;;;;4.85;2.00;;;;;;;;;;5029494;28;20040;-76
2023/01/02 02:47:04;;;;;;;8.52;3.25;;;;;;;;;;5033372;28;20025;-77
2023/01/02 02:50:02;;;;;;;9.40;2.75;;;;;;;;;;5015356;28;20481;-77
2023/01/02 02:53:13;;;;;;;5.65;2.40;;;;;;;;;;5029393;28;20029;-76
2023/01/02 02:56:00;;;;;;;4.20;2.25;;;;;;;;;;5028941;28;20384;-77
2023/01/02 02:58:46;;;;;;;9.95;2.40;;;;;;;;;;5028388;28;20485;-74
2023/01/02 03:01:31;;;;;;;4.28;1.95;;;;;;;;;;5033411;28;20048;-77
2023/01/02 03:04:20;;;;;;;4.22;2.15;;;;;;;;;;5028458;28;20044;-76
2023/01/02 03:07:15;;;;;;;8.32;3.20;;;;;;;;;;5028681;28;20116;-76
2023/01/02 03:10:00;;;;;;;7.30;2.38;;;;;;;;;;5009457;28;20073;-77
2023/01/02 03:13:04;;;;;;;7.10;2.65;;;;;;;;;;5028037;28;20029;-78
2023/01/02 03:15:49;;;;;;;6.78;2.40;;;;;;;;;;5029052;28;20025;-77
2023/01/02 03:18:38;;;;;;;7.22;2.35;;;;;;;;;;5029062;28;20048;-69
2023/01/02 03:21:28;;;;;;;4.97;2.53;;;;;;;;;;5014777;28;20416;-68
2023/01/02 03:24:13;;;;;;;;;;;;;;;;;;5029622;28;20033;-68
2023/01/02 03:27:01;;;;;;;5.35;2.22;;;;;;;;;;5015391;28;19913;-68
2023/01/02 03:29:51;;;;;;;6.28;1.63;;;;;;;;;;5029318;28;20108;-67
2023/01/02 03:32:42;;;;;;;4.30;1.77;;;;;;;;;;5029364;28;20033;-66
2023/01/02 03:35:39;;;;;;;3.17;1.52;;;;;;;;;;5029474;28;20041;-70
2023/01/02 03:38:27;;;;;;;3.67;2.05;;;;;;;;;;5028814;28;20037;-76
2023/01/02 03:41:18;;;;;;;3.30;1.40;;;;;;;;;;5042100;28;20068;-75
2023/01/02 03:44:04;;;;;;;3.95;1.75;;;;;;;;;;5042521;28;20041;-76
2023/01/02 03:46:52;;;;;;;4.93;1.52;;;;;;;;;;5025592;28;20032;-77
2023/01/02 03:49:42;;;;;;;4.10;1.92;;;;;;;;;;5041675;28;20127;-77
2023/01/02 03:52:28;;;;;;;7.13;1.65;;;;;;;;;;5035799;28;20132;-82
2023/01/02 03:55:13;;;;;;;4.88;1.70;;;;;;;;;;5033583;28;20094;-67
2023/01/02 03:58:01;;;;;;;5.72;2.13;;;;;;;;;;5032098;28;20053;-67
2023/01/02 04:00:56;;;;;;;3.03;1.80;;;;;;;;;;5028953;28;20109;-66
2023/01/02 04:03:48;;;;;;;6.25;1.50;;;;;;;;;;5031957;28;20035;-65
2023/01/02 04:06:35;;;;;;;4.90;1.95;;;;;;;;;;5033579;28;20071;-66
2023/01/02 04:09:23;;;;;;;5.22;1.83;;;;;;;;;;5028512;28;20111;-66
2023/01/02 04:12:12;;;;;;;5.53;1.80;;;;;;;;;;5028294;28;20624;-83
2023/01/02 04:15:00;;;;;;;4.53;1.83;;;;;;;;;;5028884;28;20509;-82
2023/01/02 04:17:48;;;;;;;5.18;1.70;;;;;;;;;;5014530;28;20037;-81
2023/01/02 04:20:36;;;;;;;4.28;1.80;;;;;;;;;;5031386;28;20064;-83
2023/01/02 04:23:29;;;;;;;7.28;1.45;;;;;;;;;;5013233;28;20029;-83
2023/01/02 04:26:14;;;;;;;3.25;1.38;;;;;;;;;;5028325;28;20128;-83
2023/01/02 04:28:59;;;;;;;2.05;1.35;;;;;;;;;;5028404;28;20029;-76
2023/01/02 04:32:03;;;;;;;7.25;1.65;;;;;;;;;;5027668;28;20496;-77
2023/01/02 04:34:49;;;;;;;3.90;1.65;;;;;;;;;;5016852;28;20048;-77
2023/01/02 04:37:36;;;;;;;3.25;1.40;;;;;;;;;;5023902;28;20036;-77
2023/01/02 04:40:27;;;;;;;12.68;1.98;;;;;;;;;;5031682;28;20051;-77
2023/01/02 04:43:17;;;;;;;5.38;1.50;;;;;;;;;;5031598;28;20614;-76
2023/01/02 04:46:03;;;;;;;6.18;1.50;;;;;;;;;;5028279;28;20041;-77
2023/01/02 04:48:48;;;;;;;4.03;1.80;;;;;;;;;;5014095;28;20060;-72
2023/01/02 04:51:33;;;;;;;6.68;2.17;;;;;;;;;;5041432;28;20164;-83
2023/01/02 04:54:18;;;;;;;4.35;2.25;;;;;;;;;;5028172;28;20556;-81
2023/01/02 04:57:03;;;;;;;5.72;1.98;;;;;;;;;;5028026;28;20419;-81
2023/01/02 04:59:49;;;;;;;4.80;1.40;;;;;;;;;;5022742;28;20029;-81
2023/01/02 05:02:38;;;;;;;6.28;1.52;;;;;;;;;;5024440;28;20033;-81
2023/01/02 05:05:23;;;;;;;4.00;1.60;;;;;;;;;;5021388;28;20029;-82
2023/01/02 05:08:08;;;;;;;3.42;1.80;;;;;;;;;;5027590;28;20115;-73
2023/01/02 05:10:53;;;;;;;6.53;2.30;;;;;;;;;;5027965;28;20029;-67
2023/01/02 05:13:38;;;;;;;8.30;2.03;;;;;;;;;;5012569;28;20091;-67
2023/01/02 05:16:24;;;;;;;3.35;2.20;;;;;;;;;;5027289;28;20029;-68
2023/01/02 05:19:10;;;;;;;4.22;1.95;;;;;;;;;;5021973;28;20054;-68
2023/01/02 05:24:59;;;;;;;6.72;2.40;;;;;;;;;;5027473;28;20041;-75
2023/01/02 05:27:44;;;;;;;3.03;1.33;;;;;;;;;;5063120;22;20098;-71
2023/01/02 05:30:30;;;;;;;4.45;1.80;;;;;;;;;;5081308;28;20032;-69
2023/01/02 05:33:15;;;;;;;3.60;1.73;;;;;;;;;;5067764;28;20070;-70
2023/01/02 05:36:00;;;;;;;4.65;1.50;;;;;;;;;;5054407;28;20017;-70
2023/01/02 05:38:45;;;;;;;14.20;2.13;;;;;;;;;;5069219;28;20082;-70
2023/01/02 05:41:30;;;;;;;4.85;1.65;;;;;;;;;;5067197;28;20083;-69
2023/01/02 05:44:16;;;;;;;2.97;1.67;;;;;;;;;;5066305;28;20024;-77
2023/01/02 05:47:01;;;;;;;5.55;2.05;;;;;;;;;;5068741;28;20025;-74
2023/01/02 05:49:46;;;;;;;2.10;1.45;;;;;;;;;;5067375;28;20353;-73
2023/01/02 05:52:31;;;;;;;11.15;2.83;;;;;;;;;;5073671;28;20104;-73
2023/01/02 05:55:17;;;;;;;7.45;1.63;;;;;;;;;;5063194;28;20031;-73
2023/01/02 05:58:02;;;;;;;4.25;2.35;;;;;;;;;;5074746;28;20067;-74
2023/01/02 06:00:47;;;;;;;6.28;1.98;;;;;;;;;;5070663;28;20123;-77
2023/01/02 06:03:32;;;;;;;6.05;1.75;;;;;;;;;;5070195;28;20036;-70
2023/01/02 06:06:19;;;;;;;4.50;1.40;;;;;;;;;;5069839;28;20044;-86
2023/01/02 06:09:04;;;;;;;6.45;1.65;;;;;;;;;;5059411;28;20040;-85
2023/01/02 06:11:50;;;;;;;4.20;1.65;;;;;;;;;;5069466;28;20585;-88
2023/01/02 06:14:35;;;;;;;3.58;1.65;;;;;;;;;;5048862;28;20063;-87
2023/01/02 06:17:21;;;;;;;7.85;2.10;;;;;;;;;;5072477;28;20146;-86
2023/01/02 06:20:07;;;;;;;5.05;2.00;;;;;;;;;;5059605;28;20123;-73
2023/01/02 06:22:52;;;;;;;5.93;1.88;;;;;;;;;;5080358;28;20097;-73
2023/01/02 06:25:37;;;;;;;5.22;1.55;;;;;;;;;;5070198;28;20025;-73
2023/01/02 06:28:22;;;;;;;4.97;1.70;;;;;;;;;;5069869;28;20040;-73
2023/01/02 06:31:16;;;;;;;3.90;1.73;;;;;;;;;;5056062;28;20467;-74
2023/01/02 06:34:02;;;;;;;9.15;2.15;;;;;;;;;;5069960;28;20032;-72
2023/01/02 06:36:47;;;;;;;5.00;1.90;;;;;;;;;;5072773;28;20097;-73
2023/01/02 06:39:32;;;;;;;6.43;2.70;;;;;;;;;;5069002;28;20395;-77
2023/01/02 06:42:17;;;;;;;6.78;2.63;;;;;;;;;;5069615;28;20034;-72
2023/01/02 06:45:03;;;;;;;7.05;2.97;;;;;;;;;;5070057;28;20038;-72
2023/01/02 06:47:54;;;;;;;7.55;2.42;;;;;;;;;;5070828;28;20024;-71
2023/01/02 06:50:40;;;;;;;6.95;2.30;;;;;;;;;;5069955;28;20063;-71
2023/01/02 06:53:25;;;;;;;5.60;1.92;;;;;;;;;;5069697;28;20033;-71
2023/01/02 06:56:12;;;;;;;4.55;1.95;;;;;;;;;;5055540;28;20087;-77
2023/01/02 06:58:57;;;;;;;5.47;2.50;;;;;;;;;;5050871;28;20033;-78
2023/01/02 07:01:42;;;;;;;5.03;2.10;;;;;;;;;;5066838;28;20050;-76
2023/01/02 07:04:27;;;;;;;7.80;2.55;;;;;;;;;;5068027;28;20110;-77
2023/01/02 07:07:13;;;;;;;5.32;2.28;;;;;;;;;;5073773;28;20505;-76
2023/01/02 07:09:58;;;;;;;7.78;2.80;;;;;;;;;;5068554;28;20086;-76
2023/01/02 07:12:43;;;;;;;5.95;2.85;;;;;;;;;;5068158;28;20505;-75
2023/01/02 07:15:28;;;;;;;4.18;2.20;;;;;;;;;;5068708;28;20101;-88
2023/01/02 07:18:14;;;;;;;6.07;2.45;;;;;;;;;;5069039;28;20060;-76
2023/01/02 07:20:59;;;;;;;5.55;2.30;;;;;;;;;;5049120;28;20112;-75
2023/01/02 07:23:44;;;;;;;6.70;2.70;;;;;;;;;;5074929;28;20028;-76
2023/01/02 07:26:30;;;;;;;5.10;2.40;;;;;;;;;;5069143;28;20263;-76
2023/01/02 07:29:15;;;;;;;10.48;2.67;;;;;;;;;;5069113;28;20068;-76
2023/01/02 07:32:00;;;;;;;6.05;2.42;;;;;;;;;;5068943;28;20119;-76
2023/01/02 07:34:45;;;;;;;6.72;2.67;;;;;;;;;;5068062;28;20032;-88
2023/01/02 07:37:30;;;;;;;7.55;2.70;;;;;;;;;;5071108;28;20041;-78
2023/01/02 07:40:16;;;;;;;6.65;2.92;;;;;;;;;;5048479;28;20037;-78
2023/01/02 07:43:01;;;;;;;5.47;2.38;;;;;;;;;;5054951;28;20085;-76
2023/01/02 07:45:46;;;;;;;6.13;2.67;;;;;;;;;;5068861;28;20153;-77
2023/01/02 07:48:31;;;;;;;8.05;2.42;;;;;;;;;;5071152;28;20036;-80
2023/01/02 07:51:17;;;;;;;8.63;2.03;;;;;;;;;;5068933;28;20072;-72
2023/01/02 07:54:02;;;;;;;7.95;2.35;;;;;;;;;;5049399;28;20057;-89
2023/01/02 07:56:47;;;;;;;8.52;2.25;;;;;;;;;;5039722;28;20028;-89
2023/01/02 07:59:32;;;;;;;4.38;2.53;;;;;;;;;;5054027;28;20551;-89
2023/01/02 08:02:17;;;;;;;6.13;2.58;;;;;;;;;;5067374;28;20123;-88
2023/01/02 08:05:03;;;;;;;9.05;2.75;;;;;;;;;;5053121;28;20199;-89
2023/01/02 08:07:48;;;;;;;6.43;2.30;;;;;;;;;;5078282;28;20474;-88
2023/01/02 08:10:35;;;;;;;8.13;2.00;;;;;;;;;;5041295;28;20036;-78
2023/01/02 08:13:20;;;;;;;5.95;2.58;;;;;;;;;;5068142;28;20032;-79
2023/01/02 08:16:09;;;;;;;9.43;2.35;;;;;;;;;;5054249;28;20064;-78
2023/01/02 08:18:55;;;;;;;4.03;2.40;;;;;;;;;;5067510;28;20361;-78
2023/01/02 08:21:40;;;;;;;8.15;2.10;;;;;;;;;;5068720;28;20032;-79
2023/01/02 08:24:25;;;;;;;8.73;3.72;;;;;;;;;;5075564;28;20059;-77
2023/01/02 08:27:11;;;;;;;10.30;2.50;;;;;;;;;;5052610;28;20056;-76
2023/01/02 08:29:56;;;;;;;6.15;3.40;;;;;;;;;;5067912;28;20054;-77
2023/01/02 08:32:42;;;;;;;7.32;3.10;;;;;;;;;;5041997;28;20151;-74
2023/01/02 08:35:27;;;;;;;9.25;2.75;;;;;;;;;;5067545;28;20039;-75
2023/01/02 08:38:12;;;;;;;5.57;2.70;;;;;;;;;;5069864;28;20491;-74
2023/01/02 08:40:58;;;;;;;11.32;3.28;;;;;;;;;;5053586;28;20035;-74
2023/01/02 08:43:43;;;;;;;7.22;2.72;;;;;;;;;;5066994;28;20244;-73
2023/01/02 08:46:29;;;;;;;8.43;2.83;;;;;;;;;;5067697;28;20414;-71
2023/01/02 08:49:15;;;;;;;9.23;2.63;;;;;;;;;;5059211;28;20024;-71
2023/01/02 08:52:00;;;;;;;5.80;1.95;;;;;;;;;;5068024;28;20032;-68
2023/01/02 08:54:45;;;;;;;6.70;2.70;;;;;;;;;;5063913;28;20041;-72
2023/01/02 08:57:31;;;;;;;5.13;2.33;;;;;;;;;;5059787;28;20029;-69
2023/01/02 09:00:16;;;;;;;6.40;2.53;;;;;;;;;;5064560;28;20090;-69
2023/01/02 09:03:01;;;;;;;6.63;2.90;;;;;;;;;;5067545;28;20075;-68
2023/01/02 09:05:46;;;;;;;8.45;3.55;;;;;;;;;;5067509;28;20056;-77
2023/01/02 09:08:32;;;;;;;8.43;2.20;;;;;;;;;;5078458;28;20364;-88
2023/01/02 09:11:18;;;;;;;4.35;2.63;;;;;;;;;;5067163;28;20057;-88
2023/01/02 09:14:04;;;;;;;6.40;2.53;;;;;;;;;;5052499;28;20491;-90
2023/01/02 09:16:50;;;;;;;7.07;2.30;;;;;;;;;;5067763;28;20299;-88
2023/01/02 09:19:35;;;;;;;10.52;2.83;;;;;;;;;;5046478;28;20123;-88
2023/01/02 09:22:20;;;;;;;6.47;3.15;;;;;;;;;;5054083;28;20040;-88
2023/01/02 09:25:06;;;;;;;9.02;2.50;;;;;;;;;;5053779;28;20058;-76
2023/01/02 09:27:51;;;;;;;5.50;2.38;;;;;;;;;;5073832;28;20540;-77
2023/01/02 09:30:36;;;;;;;6.05;2.35;;;;;;;;;;5073747;28;20429;-77
2023/01/02 09:33:22;;;;;;;4.82;2.20;;;;;;;;;;5074129;28;20036;-77
2023/01/02 09:36:08;;;;;;;15.68;3.38;;;;;;;;;;5073786;28;20075;-78
2023/01/02 09:38:55;;;;;;;5.25;2.58;;;;;;;;;;5075613;28;21279;-77
2023/01/02 09:41:46;;;;;;;8.07;3.58;;;;;;;;;;5074204;28;20040;-71
2023/01/02 09:44:35;;;;;;;7.28;2.22;;;;;;;;;;5073670;28;20040;-76
2023/01/02 09:47:23;;;;;;;7.50;3.07;;;;;;;;;;5073503;28;20032;-78
2023/01/02 09:50:21;;;;;;;5.90;2.50;;;;;;;;;;5073667;28;20107;-77
2023/01/02 09:53:08;;;;;;;6.72;2.47;;;;;;;;;;5073202;28;20032;-76
2023/01/02 09:56:02;;;;;;;7.30;2.47;;;;;;;;;;5060467;28;20037;-77
2023/01/02 09:58:47;;;;;;;3.72;1.85;;;;;;;;;;5061850;28;20055;-79
2023/01/02 10:01:56;;;;;;;6.05;2.10;;;;;;;;;;5057178;28;20063;-78
2023/01/02 10:05:00;;;;;;;4.93;2.10;;;;;;;;;;5072957;28;20348;-68
2023/01/02 10:08:04;;;;;;;7.78;2.80;;;;;;;;;;5083651;28;20063;-69
2023/01/02 10:10:54;;;;;;;7.32;3.17;;;;;;;;;;5070115;28;20037;-69
2023/01/02 10:13:40;;;;;;;;;;;;;;;;;;5073838;28;20050;-69
2023/01/02 10:16:30;;;;;;;5.97;2.10;;;;;;;;;;5073540;28;19912;-69
2023/01/02 10:19:35;;;;;;;4.05;1.98;;;;;;;;;;5082293;28;20274;-71
2023/01/02 10:22:35;;;;;;;6.88;1.85;;;;;;;;;;5066466;28;20047;-76
2023/01/02 10:25:29;;;;;;;4.45;1.83;;;;;;;;;;5061887;28;20028;-77
2023/01/02 10:28:21;;;;;;;6.32;2.67;;;;;;;;;;5073340;28;20040;-78
2023/01/02 10:31:19;;;;;;;8.40;2.10;;;;;;;;;;5071021;28;20050;-76
2023/01/02 10:34:07;;;;;;;4.60;2.22;;;;;;;;;;5072405;28;20031;-77
2023/01/02 10:36:52;;;;;;;8.35;2.08;;;;;;;;;;5073694;28;20032;-76
2023/01/02 10:39:38;;;;;;;4.95;2.80;;;;;;;;;;5069647;28;20031;-71
2023/01/02 10:42:23;;;;;;;6.20;2.03;;;;;;;;;;5070032;28;20170;-81
2023/01/02 10:45:12;;;;;;;9.55;2.42;;;;;;;;;;5069883;28;20376;-78
2023/01/02 10:47:58;;;;;;;4.43;2.00;;;;;;;;;;5062307;28;20554;-78
2023/01/02 10:50:46;;;;;;;7.63;2.05;;;;;;;;;;5061469;28;20036;-78
2023/01/02 10:53:33;;;;;;;7.77;2.30;;;;;;;;;;5069887;28;20483;-77
2023/01/02 10:56:19;;;;;;;8.02;2.05;;;;;;;;;;5055712;28;20376;-72
2023/01/02 10:59:37;;;;;;;8.90;2.47;;;;;;;;;;5066157;28;20384;-71
2023/01/02 11:02:41;;;;;;;3.85;1.90;;;;;;;;;;5012467;28;20041;-71
2023/01/02 11:05:27;;;;;;;9.13;2.78;;;;;;;;;;5067877;28;20040;-72
2023/01/02 11:08:13;;;;;;;6.97;2.08;;;;;;;;;;5065719;28;20035;-71
2023/01/02 11:11:00;;;;;;;5.78;2.20;;;;;;;;;;5068283;28;20038;-72
2023/01/02 11:13:47;;;;;;;10.25;2.88;;;;;;;;;;5068170;28;20056;-77
2023/01/02 11:16:36;;;;;;;7.70;2.15;;;;;;;;;;5068956;28;20021;-88
2023/01/02 11:19:22;;;;;;;9.35;2.75;;;;;;;;;;5053815;28;20146;-88
2023/01/02 11:22:11;;;;;;;6.68;2.25;;;;;;;;;;5073453;28;20139;-90
2023/01/02 11:25:01;;;;;;;5.32;2.00;;;;;;;;;;5075956;28;20036;-91
2023/01/02 11:27:46;;;;;;;8.27;2.08;;;;;;;;;;5070633;28;20432;-90
2023/01/02 11:30:36;;;;;;;12.68;2.58;;;;;;;;;;5061553;28;20064;-90
2023/01/02 11:33:21;;;;;;;;;;;;;;;;;;5069549;28;20549;-90
2023/01/02 11:36:09;;;;;;;5.57;1.65;;;;;;;;;;5068220;28;19974;-78
2023/01/02 11:38:57;;;;;;;11.10;2.92;;;;;;;;;;5071465;28;20503;-78
2023/01/02 11:45:09;;;;;;;7.13;1.92;;;;;;;;;;5068560;28;20028;-80
2023/01/02 11:48:00;;;;;;;12.50;2.60;;;;;;;;;;5059806;28;20330;-75
2023/01/02 11:50:45;;;;;;;9.00;2.15;;;;;;;;;;5071252;28;20036;-89
2023/01/02 11:56:05;;;;;;;10.07;2.28;;;;;;;;;;5028950;28;20049;-82
2023/01/02 11:58:59;;;;;;;10.75;3.13;;;;;;;;;;5018562;28;20034;-84
2023/01/02 12:01:51;;;;;;;6.47;2.15;;;;;;;;;;5015138;28;20112;-84
2023/01/02 12:04:36;;;;;;;7.20;2.28;;;;;;;;;;5015437;28;20033;-85
2023/01/02 12:07:33;;;;;;;9.00;2.50;;;;;;;;;;5038097;28;20571;-84
2023/01/02 12:10:28;;;;;;;8.73;3.63;;;;;;;;;;5014982;28;20036;-67
2023/01/02 12:13:21;;;;;;;7.65;2.63;;;;;;;;;;5014701;28;20045;-67
2023/01/02 12:16:25;;;;;;;8.93;2.72;;;;;;;;;;5028618;28;20045;-68
2023/01/02 12:19:22;;;;;;;6.72;3.05;;;;;;;;;;5032879;28;20067;-67
2023/01/02 12:22:13;;;;;;;10.13;2.38;;;;;;;;;;5033038;28;20282;-70
2023/01/02 12:24:59;;;;;;;12.70;2.75;;;;;;;;;;5041168;28;20041;-67
2023/01/02 12:27:47;;;;;;;9.88;3.25;;;;;;;;;;5048521;28;20243;-72
2023/01/02 12:30:35;;;;;;;8.45;2.30;;;;;;;;;;5048724;28;20067;-72
2023/01/02 12:33:39;;;;;;;9.70;2.50;;;;;;;;;;5048479;28;20041;-73
2023/01/02 12:36:45;;;;;;;4.38;2.30;;;;;;;;;;5041430;28;20437;-73
2023/01/02 12:39:51;;;;;;;5.43;2.17;;;;;;;;;;5047860;28;20500;-73
2023/01/02 12:42:46;;;;;;;7.82;2.17;;;;;;;;;;5040036;28;20037;-73
2023/01/02 12:45:42;;;;;;;13.00;2.75;;;;;;;;;;5047922;28;20036;-76
2023/01/02 12:48:30;;;;;;;12.50;3.05;;;;;;;;;;5056708;28;20036;-77
2023/01/02 12:51:28;;;;;;;9.85;2.75;;;;;;;;;;5031354;28;20032;-75
2023/01/02 12:54:26;;;;;;;13.13;3.15;;;;;;;;;;5048062;28;20178;-76
2023/01/02 12:57:35;;;;;;;9.48;2.80;;;;;;;;;;5047850;28;20118;-76
2023/01/02 13:00:24;;;;;;;13.95;4.35;;;;;;;;;;5046921;28;20040;-77
2023/01/02 13:03:21;;;;;;;5.27;2.70;;;;;;;;;;5047942;28;20033;-78
2023/01/02 13:06:13;;;;;;;8.27;2.15;;;;;;;;;;5047375;28;20174;-77
2023/01/02 13:09:10;;;;;;;9.82;2.90;;;;;;;;;;5047542;28;20029;-77
2023/01/02 13:11:58;;;;;;;13.98;2.83;;;;;;;;;;5047233;28;20335;-76
2023/01/02 13:14:46;;;;;;;9.48;2.22;;;;;;;;;;5033135;28;20048;-77
2023/01/02 13:17:44;;;;;;;8.20;2.55;;;;;;;;;;5038055;28;20029;-77
2023/01/02 13:20:38;;;;;;;4.00;2.30;;;;;;;;;;5036360;28;20056;-78
2023/01/02 13:23:26;;;;;;;11.63;3.38;;;;;;;;;;5060649;28;20601;-78
2023/01/02 13:26:12;;;;;;;8.48;2.90;;;;;;;;;;5046881;28;20471;-67
2023/01/02 13:29:17;;;;;;;10.18;3.13;;;;;;;;;;5047370;28;20025;-69
2023/01/02 13:32:02;;;;;;;7.47;2.88;;;;;;;;;;5047424;28;20037;-69
2023/01/02 13:34:51;;;;;;;12.70;3.65;;;;;;;;;;5026179;28;20029;-70
2023/01/02 13:37:41;;;;;;;5.88;2.60;;;;;;;;;;5031592;28;20075;-68
2023/01/02 13:40:31;;;;;;;9.48;2.70;;;;;;;;;;5047001;28;20231;-68
2023/01/02 13:43:20;;;;;;;15.20;3.20;;;;;;;;;;5047781;28;20045;-70
2023/01/02 13:46:08;;;;;;;8.55;2.33;;;;;;;;;;5034367;28;20052;-66
2023/01/02 13:48:58;;;;;;;12.70;2.75;;;;;;;;;;5058143;28;20040;-67
2023/01/02 13:51:43;;;;;;;;;;;;;;;;;;5039044;28;20102;-67
2023/01/02 13:54:35;;;;;;;10.23;3.22;;;;;;;;;;5047050;28;19958;-67
2023/01/02 13:57:24;;;;;;;13.68;3.40;;;;;;;;;;5047418;28;20427;-67
2023/01/02 14:00:15;;;;;;;9.27;2.70;;;;;;;;;;5047032;28;20037;-68
2023/01/02 14:03:31;;;;;;;8.07;3.00;;;;;;;;;;5033409;28;20040;-77
2023/01/02 14:06:32;;;;;;;8.45;2.60;;;;;;;;;;5039348;28;20045;-78
2023/01/02 14:09:18;;;;;;;6.43;2.15;;;;;;;;;;5037950;28;20508;-77
2023/01/02 14:12:11;;;;;;;12.77;2.58;;;;;;;;;;5045659;28;20099;-77
2023/01/02 14:14:56;;;;;;;9.48;3.05;;;;;;;;;;5032981;28;20033;-79
2023/01/02 14:17:44;;;;;;;9.45;2.95;;;;;;;;;;5037035;28;20064;-74
2023/01/02 14:20:32;;;;;;;11.13;2.42;;;;;;;;;;5050649;28;20106;-72
2023/01/02 14:23:27;;;;;;;7.70;2.97;;;;;;;;;;5045112;28;20040;-69
2023/01/02 14:26:24;;;;;;;10.88;2.90;;;;;;;;;;5050576;28;20040;-68
2023/01/02 14:29:11;;;;;;;11.32;2.47;;;;;;;;;;5037025;28;20680;-71
2023/01/02 14:32:02;;;;;;;7.47;2.95;;;;;;;;;;5050491;28;20033;-68
2023/01/02 14:34:49;;;;;;;11.93;3.42;;;;;;;;;;5036106;28;20047;-71
2023/01/02 14:37:37;;;;;;;11.35;3.47;;;;;;;;;;5048692;28;20039;-73
2023/01/02 14:40:22;;;;;;;9.20;2.92;;;;;;;;;;5036838;28;20041;-84
2023/01/02 14:43:28;;;;;;;13.75;3.72;;;;;;;;;;5036794;28;20043;-88
2023/01/02 14:46:16;;;;;;;11.32;3.63;;;;;;;;;;5037090;28;20376;-85
2023/01/02 14:49:12;;;;;;;12.60;2.90;;;;;;;;;;5036748;28;20102;-84
2023/01/02 14:52:04;;;;;;;12.25;3.58;;;;;;;;;;5042746;28;20066;-84
2023/01/02 14:54:55;;;;;;;8.98;2.58;;;;;;;;;;5038433;28;20029;-86
2023/01/02 14:57:43;;;;;;;14.85;3.35;;;;;;;;;;5036166;28;20040;-76
2023/01/02 15:00:40;;;;;;;12.18;3.85;;;;;;;;;;5036328;28;20029;-75
2023/01/02 15:03:46;;;;;;;12.07;2.78;;;;;;;;;;5050060;28;20087;-77
2023/01/02 15:06:40;;;;;;;9.23;2.72;;;;;;;;;;5049349;28;20027;-76
2023/01/02 15:09:28;;;;;;;9.15;3.13;;;;;;;;;;5023638;28;20045;-77
2023/01/02 15:15:24;;;;;;;10.45;2.70;;;;;;;;;;5049456;28;20041;-76
2023/01/02 15:18:19;;;;;;;11.10;2.92;;;;;;;;;;5048918;28;20043;-72
2023/01/02 15:21:08;;;;;;;8.93;2.95;;;;;;;;;;5039731;28;20025;-73
2023/01/02 15:23:55;;;;;;;11.30;2.70;;;;;;;;;;5061945;28;20542;-73
2023/01/02 15:26:43;;;;;;;5.90;2.55;;;;;;;;;;5049082;28;20033;-74
2023/01/02 15:29:28;;;;;;;12.13;2.95;;;;;;;;;;5049788;28;20379;-74
2023/01/02 15:32:19;;;;;;;11.23;2.75;;;;;;;;;;5054796;28;20041;-78
2023/01/02 15:35:08;;;;;;;11.52;2.85;;;;;;;;;;5039587;28;20041;-73
2023/01/02 15:37:53;;;;;;;13.50;2.78;;;;;;;;;;5032364;28;20041;-73
2023/01/02 15:40:39;;;;;;;6.55;2.22;;;;;;;;;;5049061;28;20051;-73
2023/01/02 15:46:29;;;;;;;12.38;3.55;;;;;;;;;;5049413;28;20040;-72
2023/01/02 15:49:15;;;;;;;8.15;2.45;;;;;;;;;;5045598;28;20538;-72
2023/01/02 15:52:00;;;;;;;14.63;3.65;;;;;;;;;;5041792;28;20372;-70
2023/01/02 15:54:45;;;;;;;10.55;2.33;;;;;;;;;;5036130;28;20045;-76
2023/01/02 15:57:31;;;;;;;12.13;3.38;;;;;;;;;;5048532;28;20041;-78
2023/01/02 16:00:33;;;;;;;8.50;3.00;;;;;;;;;;5041286;28;20492;-76
2023/01/02 16:03:35;;;;;;;11.07;2.80;;;;;;;;;;5048238;28;20071;-78
2023/01/02 16:06:40;;;;;;;10.15;3.42;;;;;;;;;;5031211;28;20507;-76
2023/01/02 16:09:26;;;;;;;10.75;2.58;;;;;;;;;;5048575;28;20538;-85
2023/01/02 16:12:17;;;;;;;7.97;3.13;;;;;;;;;;5048456;28;20032;-74
2023/01/02 16:15:03;;;;;;;10.32;2.70;;;;;;;;;;5048104;28;20049;-73
2023/01/02 16:17:49;;;;;;;8.85;2.65;;;;;;;;;;5048153;28;20056;-74
2023/01/02 16:20:34;;;;;;;11.85;3.10;;;;;;;;;;5023959;28;20488;-73
2023/01/02 16:23:20;;;;;;;7.55;2.88;;;;;;;;;;5047625;28;20034;-72
2023/01/02 16:26:08;;;;;;;9.00;3.05;;;;;;;;;;5048012;28;20029;-74
2023/01/02 16:28:54;;;;;;;8.35;3.13;;;;;;;;;;5047669;28;20563;-75
2023/01/02 16:31:53;;;;;;;10.55;2.63;;;;;;;;;;5034372;28;20091;-70
2023/01/02 16:34:42;;;;;;;8.60;3.60;;;;;;;;;;5031341;28;20030;-69
2023/01/02 16:37:29;;;;;;;7.00;2.25;;;;;;;;;;5033619;28;20151;-70
2023/01/02 16:40:24;;;;;;;6.03;2.45;;;;;;;;;;5047955;28;20380;-71
2023/01/02 16:43:10;;;;;;;7.72;3.15;;;;;;;;;;5047587;28;20487;-70
2023/01/02 16:45:55;;;;;;;20.80;2.60;;;;;;;;;;5034081;28;20365;-74
2023/01/02 16:48:41;;;;;;;10.32;3.15;;;;;;;;;;5059732;28;20528;-83
2023/01/02 16:51:27;;;;;;;7.60;2.85;;;;;;;;;;5014344;28;20083;-86
2023/01/02 16:54:13;;;;;;;17.10;2.60;;;;;;;;;;5046055;28;20045;-84
2023/01/02 16:56:58;;;;;;;7.80;2.65;;;;;;;;;;5037029;28;20032;-84
2023/01/02 16:59:44;;;;;;;10.38;2.42;;;;;;;;;;5035527;28;20098;-82
2023/01/02 17:02:29;;;;;;;10.98;2.60;;;;;;;;;;5043474;28;20098;-82
2023/01/02 17:05:16;;;;;;;3.95;2.00;;;;;;;;;;5047842;28;20033;-77